sensor_id;sensor_type;location;lat;lon;timestamp;temperature;humidity
47338;DHT22;33069;51.970;5.892;2023-10-19T00:02:28;10.70;90.20
47338;DHT22;33069;51.970;5.892;2023-10-19T00:05:15;10.70;90.20
47338;DHT22;33069;51.970;5.892;2023-10-19T00:08:03;10.70;90.30
47338;DHT22;33069;51.970;5.892;2023-10-19T00:10:58;10.80;90.30
47338;DHT22;33069;51.970;5.892;2023-10-19T00:13:53;10.80;90.40
47338;DHT22;33069;51.970;5.892;2023-10-19T00:16:43;10.70;90.30
47338;DHT22;33069;51.970;5.892;2023-10-19T00:19:55;10.70;90.40
47338;DHT22;33069;51.970;5.892;2023-10-19T00:23:00;10.80;90.50
47338;DHT22;33069;51.970;5.892;2023-10-19T00:25:48;11.00;90.60
47338;DHT22;33069;51.970;5.892;2023-10-19T00:28:36;10.90;90.60
47338;DHT22;33069;51.970;5.892;2023-10-19T00:31:25;10.90;90.50
47338;DHT22;33069;51.970;5.892;2023-10-19T00:34:13;10.90;90.50
47338;DHT22;33069;51.970;5.892;2023-10-19T00:36:59;11.00;90.60
47338;DHT22;33069;51.970;5.892;2023-10-19T00:39:54;11.10;90.60
47338;DHT22;33069;51.970;5.892;2023-10-19T00:42:41;11.00;90.60
47338;DHT22;33069;51.970;5.892;2023-10-19T00:45:31;11.10;90.60
47338;DHT22;33069;51.970;5.892;2023-10-19T00:48:19;11.20;90.70
47338;DHT22;33069;51.970;5.892;2023-10-19T00:51:09;11.20;90.60
47338;DHT22;33069;51.970;5.892;2023-10-19T00:53:57;11.10;90.70
47338;DHT22;33069;51.970;5.892;2023-10-19T00:56:47;11.00;90.70
47338;DHT22;33069;51.970;5.892;2023-10-19T00:59:34;11.20;90.80
47338;DHT22;33069;51.970;5.892;2023-10-19T01:02:35;11.20;90.80
47338;DHT22;33069;51.970;5.892;2023-10-19T01:05:29;11.30;90.80
47338;DHT22;33069;51.970;5.892;2023-10-19T01:08:21;11.30;90.80
47338;DHT22;33069;51.970;5.892;2023-10-19T01:11:12;11.30;90.80
47338;DHT22;33069;51.970;5.892;2023-10-19T01:14:18;11.30;90.90
47338;DHT22;33069;51.970;5.892;2023-10-19T01:17:04;11.30;90.90
47338;DHT22;33069;51.970;5.892;2023-10-19T01:19:52;11.30;90.90
47338;DHT22;33069;51.970;5.892;2023-10-19T01:22:47;11.20;90.90
47338;DHT22;33069;51.970;5.892;2023-10-19T01:25:43;11.30;90.90
47338;DHT22;33069;51.970;5.892;2023-10-19T01:28:52;11.30;90.90
47338;DHT22;33069;51.970;5.892;2023-10-19T01:31:39;11.20;90.90
47338;DHT22;33069;51.970;5.892;2023-10-19T01:34:37;11.30;91.00
47338;DHT22;33069;51.970;5.892;2023-10-19T01:37:23;11.20;91.00
47338;DHT22;33069;51.970;5.892;2023-10-19T01:40:09;11.30;91.10
47338;DHT22;33069;51.970;5.892;2023-10-19T01:42:57;11.30;91.00
47338;DHT22;33069;51.970;5.892;2023-10-19T01:45:45;11.30;91.10
47338;DHT22;33069;51.970;5.892;2023-10-19T01:48:31;11.30;91.10
47338;DHT22;33069;51.970;5.892;2023-10-19T01:51:23;11.40;91.20
47338;DHT22;33069;51.970;5.892;2023-10-19T01:54:10;11.50;91.20
47338;DHT22;33069;51.970;5.892;2023-10-19T01:56:57;11.50;91.10
47338;DHT22;33069;51.970;5.892;2023-10-19T01:59:43;11.50;91.20
47338;DHT22;33069;51.970;5.892;2023-10-19T02:02:29;11.50;91.20
47338;DHT22;33069;51.970;5.892;2023-10-19T02:05:18;11.60;91.20
47338;DHT22;33069;51.970;5.892;2023-10-19T02:08:06;11.70;91.20
47338;DHT22;33069;51.970;5.892;2023-10-19T02:10:53;11.70;91.20
47338;DHT22;33069;51.970;5.892;2023-10-19T02:13:39;11.80;91.20
47338;DHT22;33069;51.970;5.892;2023-10-19T02:16:26;11.80;91.20
47338;DHT22;33069;51.970;5.892;2023-10-19T02:19:15;11.90;91.20
47338;DHT22;33069;51.970;5.892;2023-10-19T02:22:03;11.90;91.10
47338;DHT22;33069;51.970;5.892;2023-10-19T02:24:58;11.90;91.20
47338;DHT22;33069;51.970;5.892;2023-10-19T02:27:44;12.00;91.20
47338;DHT22;33069;51.970;5.892;2023-10-19T02:30:31;12.00;91.20
47338;DHT22;33069;51.970;5.892;2023-10-19T02:33:19;12.10;91.20
47338;DHT22;33069;51.970;5.892;2023-10-19T02:36:06;12.10;91.20
47338;DHT22;33069;51.970;5.892;2023-10-19T02:39:03;12.20;91.20
47338;DHT22;33069;51.970;5.892;2023-10-19T02:41:53;12.20;91.10
47338;DHT22;33069;51.970;5.892;2023-10-19T02:44:40;12.30;91.20
47338;DHT22;33069;51.970;5.892;2023-10-19T02:47:27;12.30;91.10
47338;DHT22;33069;51.970;5.892;2023-10-19T02:50:14;12.20;91.10
47338;DHT22;33069;51.970;5.892;2023-10-19T02:53:02;12.30;91.10
47338;DHT22;33069;51.970;5.892;2023-10-19T02:55:49;12.40;91.10
47338;DHT22;33069;51.970;5.892;2023-10-19T02:58:40;12.40;91.10
47338;DHT22;33069;51.970;5.892;2023-10-19T03:01:28;12.30;91.10
47338;DHT22;33069;51.970;5.892;2023-10-19T03:04:17;12.30;91.10
47338;DHT22;33069;51.970;5.892;2023-10-19T03:07:04;12.30;91.10
47338;DHT22;33069;51.970;5.892;2023-10-19T03:09:50;12.30;91.20
47338;DHT22;33069;51.970;5.892;2023-10-19T03:12:39;12.40;91.20
47338;DHT22;33069;51.970;5.892;2023-10-19T03:15:26;12.60;91.20
47338;DHT22;33069;51.970;5.892;2023-10-19T03:18:15;12.60;91.10
47338;DHT22;33069;51.970;5.892;2023-10-19T03:21:04;12.70;91.10
47338;DHT22;33069;51.970;5.892;2023-10-19T03:23:50;12.70;91.00
47338;DHT22;33069;51.970;5.892;2023-10-19T03:26:36;12.60;90.90
47338;DHT22;33069;51.970;5.892;2023-10-19T03:29:30;12.70;90.90
47338;DHT22;33069;51.970;5.892;2023-10-19T03:32:25;12.80;91.00
47338;DHT22;33069;51.970;5.892;2023-10-19T03:35:17;12.90;91.00
47338;DHT22;33069;51.970;5.892;2023-10-19T03:38:06;13.00;91.10
47338;DHT22;33069;51.970;5.892;2023-10-19T03:41:00;13.30;91.10
47338;DHT22;33069;51.970;5.892;2023-10-19T03:43:55;13.40;91.20
47338;DHT22;33069;51.970;5.892;2023-10-19T03:46:43;13.50;91.20
47338;DHT22;33069;51.970;5.892;2023-10-19T03:49:39;13.50;91.20
47338;DHT22;33069;51.970;5.892;2023-10-19T03:52:25;13.60;91.20
47338;DHT22;33069;51.970;5.892;2023-10-19T03:55:16;13.60;91.20
47338;DHT22;33069;51.970;5.892;2023-10-19T03:58:05;13.60;91.20
47338;DHT22;33069;51.970;5.892;2023-10-19T04:00:50;13.60;91.10
47338;DHT22;33069;51.970;5.892;2023-10-19T04:03:37;13.60;91.10
47338;DHT22;33069;51.970;5.892;2023-10-19T04:06:23;13.70;91.00
47338;DHT22;33069;51.970;5.892;2023-10-19T04:09:09;13.70;91.00
47338;DHT22;33069;51.970;5.892;2023-10-19T04:11:57;13.60;91.00
47338;DHT22;33069;51.970;5.892;2023-10-19T04:14:43;13.50;90.90
47338;DHT22;33069;51.970;5.892;2023-10-19T04:17:29;13.60;90.90
47338;DHT22;33069;51.970;5.892;2023-10-19T04:20:19;13.50;90.90
47338;DHT22;33069;51.970;5.892;2023-10-19T04:23:05;13.50;90.90
47338;DHT22;33069;51.970;5.892;2023-10-19T04:25:56;13.50;90.80
47338;DHT22;33069;51.970;5.892;2023-10-19T04:28:43;13.50;90.80
47338;DHT22;33069;51.970;5.892;2023-10-19T04:31:39;13.50;90.80
47338;DHT22;33069;51.970;5.892;2023-10-19T04:34:40;13.50;90.80
47338;DHT22;33069;51.970;5.892;2023-10-19T04:37:26;13.50;90.80
47338;DHT22;33069;51.970;5.892;2023-10-19T04:40:12;13.50;90.80
47338;DHT22;33069;51.970;5.892;2023-10-19T04:42:58;13.50;90.70
47338;DHT22;33069;51.970;5.892;2023-10-19T04:45:45;13.50;90.70
47338;DHT22;33069;51.970;5.892;2023-10-19T04:48:31;13.60;90.70
47338;DHT22;33069;51.970;5.892;2023-10-19T04:51:17;13.50;90.60
47338;DHT22;33069;51.970;5.892;2023-10-19T04:54:03;13.50;90.60
47338;DHT22;33069;51.970;5.892;2023-10-19T04:56:49;13.60;90.60
47338;DHT22;33069;51.970;5.892;2023-10-19T04:59:38;13.50;90.50
47338;DHT22;33069;51.970;5.892;2023-10-19T05:02:24;13.50;90.50
47338;DHT22;33069;51.970;5.892;2023-10-19T05:05:10;13.40;90.50
47338;DHT22;33069;51.970;5.892;2023-10-19T05:07:56;13.40;90.50
47338;DHT22;33069;51.970;5.892;2023-10-19T05:10:42;13.40;90.50
47338;DHT22;33069;51.970;5.892;2023-10-19T05:13:30;13.30;90.30
47338;DHT22;33069;51.970;5.892;2023-10-19T05:16:15;13.20;90.30
47338;DHT22;33069;51.970;5.892;2023-10-19T05:19:01;13.20;90.30
47338;DHT22;33069;51.970;5.892;2023-10-19T05:21:50;13.10;90.30
47338;DHT22;33069;51.970;5.892;2023-10-19T05:24:36;13.00;90.20
47338;DHT22;33069;51.970;5.892;2023-10-19T05:27:22;13.00;90.20
47338;DHT22;33069;51.970;5.892;2023-10-19T05:30:09;13.00;90.20
47338;DHT22;33069;51.970;5.892;2023-10-19T05:32:56;13.00;90.20
47338;DHT22;33069;51.970;5.892;2023-10-19T05:35:42;13.00;90.20
47338;DHT22;33069;51.970;5.892;2023-10-19T05:38:29;13.10;90.20
47338;DHT22;33069;51.970;5.892;2023-10-19T05:41:15;13.10;90.20
47338;DHT22;33069;51.970;5.892;2023-10-19T05:44:02;13.10;90.20
47338;DHT22;33069;51.970;5.892;2023-10-19T05:46:49;13.20;90.20
47338;DHT22;33069;51.970;5.892;2023-10-19T05:49:35;13.20;90.30
47338;DHT22;33069;51.970;5.892;2023-10-19T05:52:21;13.20;90.30
47338;DHT22;33069;51.970;5.892;2023-10-19T05:55:09;13.30;90.30
47338;DHT22;33069;51.970;5.892;2023-10-19T05:57:56;13.30;90.30
47338;DHT22;33069;51.970;5.892;2023-10-19T06:00:42;13.40;90.30
47338;DHT22;33069;51.970;5.892;2023-10-19T06:03:28;13.60;90.20
47338;DHT22;33069;51.970;5.892;2023-10-19T06:06:14;13.60;90.20
47338;DHT22;33069;51.970;5.892;2023-10-19T06:09:00;13.50;90.10
47338;DHT22;33069;51.970;5.892;2023-10-19T06:11:48;13.60;90.10
47338;DHT22;33069;51.970;5.892;2023-10-19T06:14:35;13.50;89.90
47338;DHT22;33069;51.970;5.892;2023-10-19T06:17:23;13.50;90.00
47338;DHT22;33069;51.970;5.892;2023-10-19T06:20:10;13.60;90.00
47338;DHT22;33069;51.970;5.892;2023-10-19T06:23:05;13.70;89.90
47338;DHT22;33069;51.970;5.892;2023-10-19T06:25:51;13.70;89.90
47338;DHT22;33069;51.970;5.892;2023-10-19T06:28:39;13.60;89.80
47338;DHT22;33069;51.970;5.892;2023-10-19T06:31:26;13.60;89.70
47338;DHT22;33069;51.970;5.892;2023-10-19T06:34:13;13.70;89.70
47338;DHT22;33069;51.970;5.892;2023-10-19T06:37:00;13.70;89.70
47338;DHT22;33069;51.970;5.892;2023-10-19T06:39:46;13.70;89.70
47338;DHT22;33069;51.970;5.892;2023-10-19T06:42:35;13.70;89.60
47338;DHT22;33069;51.970;5.892;2023-10-19T06:45:21;13.70;89.60
47338;DHT22;33069;51.970;5.892;2023-10-19T06:48:07;13.70;89.70
47338;DHT22;33069;51.970;5.892;2023-10-19T06:50:53;13.80;89.70
47338;DHT22;33069;51.970;5.892;2023-10-19T06:53:39;13.80;89.70
47338;DHT22;33069;51.970;5.892;2023-10-19T06:56:25;13.80;89.70
47338;DHT22;33069;51.970;5.892;2023-10-19T06:59:12;13.90;89.80
47338;DHT22;33069;51.970;5.892;2023-10-19T07:01:58;14.00;89.80
47338;DHT22;33069;51.970;5.892;2023-10-19T07:04:46;14.00;89.70
47338;DHT22;33069;51.970;5.892;2023-10-19T07:07:33;14.00;89.70
47338;DHT22;33069;51.970;5.892;2023-10-19T07:10:19;14.00;89.70
47338;DHT22;33069;51.970;5.892;2023-10-19T07:13:05;14.20;89.70
47338;DHT22;33069;51.970;5.892;2023-10-19T07:15:51;14.20;89.70
47338;DHT22;33069;51.970;5.892;2023-10-19T07:18:37;14.30;89.70
47338;DHT22;33069;51.970;5.892;2023-10-19T07:21:25;14.30;89.60
47338;DHT22;33069;51.970;5.892;2023-10-19T07:24:11;14.40;89.60
47338;DHT22;33069;51.970;5.892;2023-10-19T07:26:57;14.30;89.50
47338;DHT22;33069;51.970;5.892;2023-10-19T07:29:53;14.30;89.40
47338;DHT22;33069;51.970;5.892;2023-10-19T07:32:39;14.50;89.50
47338;DHT22;33069;51.970;5.892;2023-10-19T07:35:26;14.50;89.30
47338;DHT22;33069;51.970;5.892;2023-10-19T07:38:14;14.50;89.30
47338;DHT22;33069;51.970;5.892;2023-10-19T07:41:00;14.50;89.30
47338;DHT22;33069;51.970;5.892;2023-10-19T07:43:46;14.60;89.20
47338;DHT22;33069;51.970;5.892;2023-10-19T07:46:32;14.60;89.10
47338;DHT22;33069;51.970;5.892;2023-10-19T07:49:18;14.60;89.10
47338;DHT22;33069;51.970;5.892;2023-10-19T07:52:06;14.70;89.10
47338;DHT22;33069;51.970;5.892;2023-10-19T07:54:56;14.70;88.90
47338;DHT22;33069;51.970;5.892;2023-10-19T07:57:43;14.70;88.80
47338;DHT22;33069;51.970;5.892;2023-10-19T08:00:29;14.80;88.70
47338;DHT22;33069;51.970;5.892;2023-10-19T08:03:15;14.80;88.60
47338;DHT22;33069;51.970;5.892;2023-10-19T08:06:02;14.80;88.40
47338;DHT22;33069;51.970;5.892;2023-10-19T08:08:50;14.80;88.40
47338;DHT22;33069;51.970;5.892;2023-10-19T08:11:36;14.80;88.40
47338;DHT22;33069;51.970;5.892;2023-10-19T08:14:23;14.80;88.20
47338;DHT22;33069;51.970;5.892;2023-10-19T08:17:10;14.80;88.00
47338;DHT22;33069;51.970;5.892;2023-10-19T08:19:56;15.00;88.00
47338;DHT22;33069;51.970;5.892;2023-10-19T08:22:43;15.00;87.80
47338;DHT22;33069;51.970;5.892;2023-10-19T08:25:32;15.00;87.80
47338;DHT22;33069;51.970;5.892;2023-10-19T08:28:18;15.00;87.70
47338;DHT22;33069;51.970;5.892;2023-10-19T08:31:08;15.10;87.70
47338;DHT22;33069;51.970;5.892;2023-10-19T08:33:55;15.10;87.50
47338;DHT22;33069;51.970;5.892;2023-10-19T08:36:42;15.20;87.50
47338;DHT22;33069;51.970;5.892;2023-10-19T08:39:28;15.30;87.40
47338;DHT22;33069;51.970;5.892;2023-10-19T08:42:21;15.30;87.20
47338;DHT22;33069;51.970;5.892;2023-10-19T08:45:08;15.30;87.20
47338;DHT22;33069;51.970;5.892;2023-10-19T08:47:59;15.30;87.10
47338;DHT22;33069;51.970;5.892;2023-10-19T08:50:46;15.30;87.10
47338;DHT22;33069;51.970;5.892;2023-10-19T08:53:34;15.30;87.10
47338;DHT22;33069;51.970;5.892;2023-10-19T08:56:25;15.40;87.00
47338;DHT22;33069;51.970;5.892;2023-10-19T08:59:11;15.50;86.90
47338;DHT22;33069;51.970;5.892;2023-10-19T09:02:03;15.60;86.70
47338;DHT22;33069;51.970;5.892;2023-10-19T09:04:49;15.70;86.70
47338;DHT22;33069;51.970;5.892;2023-10-19T09:07:35;15.70;86.50
47338;DHT22;33069;51.970;5.892;2023-10-19T09:10:22;15.80;86.40
47338;DHT22;33069;51.970;5.892;2023-10-19T09:13:11;15.80;86.30
47338;DHT22;33069;51.970;5.892;2023-10-19T09:16:04;15.90;86.10
47338;DHT22;33069;51.970;5.892;2023-10-19T09:18:51;16.00;85.90
47338;DHT22;33069;51.970;5.892;2023-10-19T09:21:37;16.10;85.70
47338;DHT22;33069;51.970;5.892;2023-10-19T09:24:26;16.30;85.60
47338;DHT22;33069;51.970;5.892;2023-10-19T09:27:12;16.40;85.40
47338;DHT22;33069;51.970;5.892;2023-10-19T09:29:59;16.50;85.40
47338;DHT22;33069;51.970;5.892;2023-10-19T09:32:47;16.50;85.10
47338;DHT22;33069;51.970;5.892;2023-10-19T09:35:34;16.40;84.80
47338;DHT22;33069;51.970;5.892;2023-10-19T09:38:23;16.40;85.00
47338;DHT22;33069;51.970;5.892;2023-10-19T09:41:12;16.40;85.10
47338;DHT22;33069;51.970;5.892;2023-10-19T09:44:02;16.50;85.10
47338;DHT22;33069;51.970;5.892;2023-10-19T09:46:53;16.50;85.00
47338;DHT22;33069;51.970;5.892;2023-10-19T09:49:41;16.70;85.10
47338;DHT22;33069;51.970;5.892;2023-10-19T09:52:28;16.80;84.90
47338;DHT22;33069;51.970;5.892;2023-10-19T09:58:20;16.90;84.00
47338;DHT22;33069;51.970;5.892;2023-10-19T10:01:09;17.00;83.90
47338;DHT22;33069;51.970;5.892;2023-10-19T10:03:58;17.10;83.70
47338;DHT22;33069;51.970;5.892;2023-10-19T10:09:42;17.20;83.20
47338;DHT22;33069;51.970;5.892;2023-10-19T10:12:32;17.40;83.20
47338;DHT22;33069;51.970;5.892;2023-10-19T10:15:39;17.40;82.50
47338;DHT22;33069;51.970;5.892;2023-10-19T10:18:27;17.40;82.30
47338;DHT22;33069;51.970;5.892;2023-10-19T10:21:18;17.50;82.10
47338;DHT22;33069;51.970;5.892;2023-10-19T10:24:06;17.70;81.80
47338;DHT22;33069;51.970;5.892;2023-10-19T10:26:59;17.50;81.80
47338;DHT22;33069;51.970;5.892;2023-10-19T10:29:59;17.40;81.90
47338;DHT22;33069;51.970;5.892;2023-10-19T10:32:51;17.40;82.20
47338;DHT22;33069;51.970;5.892;2023-10-19T10:38:33;17.60;82.20
47338;DHT22;33069;51.970;5.892;2023-10-19T10:41:25;17.70;82.00
47338;DHT22;33069;51.970;5.892;2023-10-19T10:44:14;17.60;81.80
47338;DHT22;33069;51.970;5.892;2023-10-19T10:47:00;17.70;81.60
47338;DHT22;33069;51.970;5.892;2023-10-19T10:49:53;17.70;81.30
47338;DHT22;33069;51.970;5.892;2023-10-19T10:52:40;17.70;81.10
47338;DHT22;33069;51.970;5.892;2023-10-19T10:55:26;17.60;81.40
47338;DHT22;33069;51.970;5.892;2023-10-19T10:58:16;17.70;81.40
47338;DHT22;33069;51.970;5.892;2023-10-19T11:01:02;17.80;81.20
47338;DHT22;33069;51.970;5.892;2023-10-19T11:03:48;17.80;81.10
47338;DHT22;33069;51.970;5.892;2023-10-19T11:06:52;17.70;81.80
47338;DHT22;33069;51.970;5.892;2023-10-19T11:09:45;17.70;81.90
47338;DHT22;33069;51.970;5.892;2023-10-19T11:12:31;17.90;82.10
47338;DHT22;33069;51.970;5.892;2023-10-19T11:15:21;18.10;81.50
47338;DHT22;33069;51.970;5.892;2023-10-19T11:18:07;18.30;81.00
47338;DHT22;33069;51.970;5.892;2023-10-19T11:20:57;18.40;80.20
47338;DHT22;33069;51.970;5.892;2023-10-19T11:23:48;18.70;79.90
47338;DHT22;33069;51.970;5.892;2023-10-19T11:26:39;18.90;79.50
47338;DHT22;33069;51.970;5.892;2023-10-19T11:29:26;19.00;78.90
47338;DHT22;33069;51.970;5.892;2023-10-19T11:32:12;18.90;77.90
47338;DHT22;33069;51.970;5.892;2023-10-19T11:34:57;18.80;77.40
47338;DHT22;33069;51.970;5.892;2023-10-19T11:37:51;18.40;78.50
47338;DHT22;33069;51.970;5.892;2023-10-19T11:40:38;18.40;79.20
47338;DHT22;33069;51.970;5.892;2023-10-19T11:43:24;18.60;79.30
47338;DHT22;33069;51.970;5.892;2023-10-19T11:46:10;18.70;79.00
47338;DHT22;33069;51.970;5.892;2023-10-19T11:49:00;18.70;78.40
47338;DHT22;33069;51.970;5.892;2023-10-19T11:51:46;18.90;78.50
47338;DHT22;33069;51.970;5.892;2023-10-19T11:54:33;19.10;77.30
47338;DHT22;33069;51.970;5.892;2023-10-19T11:57:19;19.00;76.70
47338;DHT22;33069;51.970;5.892;2023-10-19T12:00:06;18.80;76.90
47338;DHT22;33069;51.970;5.892;2023-10-19T12:02:55;18.80;77.20
47338;DHT22;33069;51.970;5.892;2023-10-19T12:05:41;18.90;77.40
47338;DHT22;33069;51.970;5.892;2023-10-19T12:08:28;19.20;77.20
47338;DHT22;33069;51.970;5.892;2023-10-19T12:11:14;19.30;76.60
47338;DHT22;33069;51.970;5.892;2023-10-19T12:14:04;19.20;76.30
47338;DHT22;33069;51.970;5.892;2023-10-19T12:16:50;19.00;76.50
47338;DHT22;33069;51.970;5.892;2023-10-19T12:19:36;18.80;77.00
47338;DHT22;33069;51.970;5.892;2023-10-19T12:22:22;18.70;78.00
47338;DHT22;33069;51.970;5.892;2023-10-19T12:25:08;18.20;79.30
47338;DHT22;33069;51.970;5.892;2023-10-19T12:27:55;18.00;80.40
47338;DHT22;33069;51.970;5.892;2023-10-19T12:30:42;18.00;80.80
47338;DHT22;33069;51.970;5.892;2023-10-19T12:33:28;17.90;81.40
47338;DHT22;33069;51.970;5.892;2023-10-19T12:36:14;17.90;81.50
47338;DHT22;33069;51.970;5.892;2023-10-19T12:39:08;17.80;81.70
47338;DHT22;33069;51.970;5.892;2023-10-19T12:41:55;18.00;82.20
47338;DHT22;33069;51.970;5.892;2023-10-19T12:44:42;18.00;81.90
47338;DHT22;33069;51.970;5.892;2023-10-19T12:47:29;18.20;81.90
47338;DHT22;33069;51.970;5.892;2023-10-19T12:50:15;18.50;81.70
47338;DHT22;33069;51.970;5.892;2023-10-19T12:53:01;18.40;81.10
47338;DHT22;33069;51.970;5.892;2023-10-19T12:55:47;18.20;81.40
47338;DHT22;33069;51.970;5.892;2023-10-19T12:58:33;18.20;81.60
47338;DHT22;33069;51.970;5.892;2023-10-19T13:01:19;18.30;81.60
47338;DHT22;33069;51.970;5.892;2023-10-19T13:04:06;18.40;81.30
47338;DHT22;33069;51.970;5.892;2023-10-19T13:06:59;18.40;81.10
47338;DHT22;33069;51.970;5.892;2023-10-19T13:09:45;18.30;80.90
47338;DHT22;33069;51.970;5.892;2023-10-19T13:12:31;18.10;80.80
47338;DHT22;33069;51.970;5.892;2023-10-19T13:15:17;17.80;81.40
47338;DHT22;33069;51.970;5.892;2023-10-19T13:18:05;17.90;81.80
47338;DHT22;33069;51.970;5.892;2023-10-19T13:20:52;17.90;82.00
47338;DHT22;33069;51.970;5.892;2023-10-19T13:23:39;18.00;82.20
47338;DHT22;33069;51.970;5.892;2023-10-19T13:26:26;17.90;82.40
47338;DHT22;33069;51.970;5.892;2023-10-19T13:29:13;17.90;82.70
47338;DHT22;33069;51.970;5.892;2023-10-19T13:32:00;17.80;83.00
47338;DHT22;33069;51.970;5.892;2023-10-19T13:34:46;17.70;83.50
47338;DHT22;33069;51.970;5.892;2023-10-19T13:37:32;17.60;83.60
47338;DHT22;33069;51.970;5.892;2023-10-19T13:40:18;17.40;84.00
47338;DHT22;33069;51.970;5.892;2023-10-19T13:43:06;17.40;84.50
47338;DHT22;33069;51.970;5.892;2023-10-19T13:45:53;17.40;84.70
47338;DHT22;33069;51.970;5.892;2023-10-19T13:48:39;17.40;84.80
47338;DHT22;33069;51.970;5.892;2023-10-19T13:51:25;17.40;85.00
47338;DHT22;33069;51.970;5.892;2023-10-19T13:54:11;17.50;85.10
47338;DHT22;33069;51.970;5.892;2023-10-19T13:56:57;17.70;85.10
47338;DHT22;33069;51.970;5.892;2023-10-19T13:59:43;17.80;84.90
47338;DHT22;33069;51.970;5.892;2023-10-19T14:02:29;17.90;84.50
47338;DHT22;33069;51.970;5.892;2023-10-19T14:05:15;18.00;84.20
47338;DHT22;33069;51.970;5.892;2023-10-19T14:08:01;17.80;83.80
47338;DHT22;33069;51.970;5.892;2023-10-19T14:10:49;18.00;84.30
47338;DHT22;33069;51.970;5.892;2023-10-19T14:13:35;17.90;83.90
47338;DHT22;33069;51.970;5.892;2023-10-19T14:16:21;18.10;83.90
47338;DHT22;33069;51.970;5.892;2023-10-19T14:19:11;18.20;83.40
47338;DHT22;33069;51.970;5.892;2023-10-19T14:21:57;18.20;83.10
47338;DHT22;33069;51.970;5.892;2023-10-19T14:24:43;18.20;82.90
47338;DHT22;33069;51.970;5.892;2023-10-19T14:27:30;18.10;82.80
47338;DHT22;33069;51.970;5.892;2023-10-19T14:30:21;18.00;82.80
47338;DHT22;33069;51.970;5.892;2023-10-19T14:33:07;17.70;83.00
47338;DHT22;33069;51.970;5.892;2023-10-19T14:35:56;17.30;84.20
47338;DHT22;33069;51.970;5.892;2023-10-19T14:38:42;17.20;84.90
47338;DHT22;33069;51.970;5.892;2023-10-19T14:41:30;16.90;85.40
47338;DHT22;33069;51.970;5.892;2023-10-19T14:44:16;17.00;85.60
47338;DHT22;33069;51.970;5.892;2023-10-19T14:47:03;17.00;85.70
47338;DHT22;33069;51.970;5.892;2023-10-19T14:49:50;17.10;85.50
47338;DHT22;33069;51.970;5.892;2023-10-19T14:52:36;17.00;85.40
47338;DHT22;33069;51.970;5.892;2023-10-19T14:55:22;16.90;85.50
47338;DHT22;33069;51.970;5.892;2023-10-19T14:58:08;16.80;85.80
47338;DHT22;33069;51.970;5.892;2023-10-19T15:00:55;16.80;86.10
47338;DHT22;33069;51.970;5.892;2023-10-19T15:03:41;16.80;86.00
47338;DHT22;33069;51.970;5.892;2023-10-19T15:06:27;16.80;86.10
47338;DHT22;33069;51.970;5.892;2023-10-19T15:09:13;16.90;86.00
47338;DHT22;33069;51.970;5.892;2023-10-19T15:12:02;17.00;86.00
47338;DHT22;33069;51.970;5.892;2023-10-19T15:14:48;16.90;85.70
47338;DHT22;33069;51.970;5.892;2023-10-19T15:17:37;16.70;85.80
47338;DHT22;33069;51.970;5.892;2023-10-19T15:20:28;16.80;86.00
47338;DHT22;33069;51.970;5.892;2023-10-19T15:23:15;16.80;86.10
47338;DHT22;33069;51.970;5.892;2023-10-19T15:26:01;16.70;85.90
47338;DHT22;33069;51.970;5.892;2023-10-19T15:28:47;16.50;86.00
47338;DHT22;33069;51.970;5.892;2023-10-19T15:31:34;16.50;86.30
47338;DHT22;33069;51.970;5.892;2023-10-19T15:34:20;16.40;86.50
47338;DHT22;33069;51.970;5.892;2023-10-19T15:37:06;16.50;86.70
47338;DHT22;33069;51.970;5.892;2023-10-19T15:39:52;16.60;86.60
47338;DHT22;33069;51.970;5.892;2023-10-19T15:42:41;16.60;86.60
47338;DHT22;33069;51.970;5.892;2023-10-19T15:45:29;16.70;86.60
47338;DHT22;33069;51.970;5.892;2023-10-19T15:48:18;16.80;86.50
47338;DHT22;33069;51.970;5.892;2023-10-19T15:51:05;16.90;86.40
47338;DHT22;33069;51.970;5.892;2023-10-19T15:53:51;16.90;86.20
47338;DHT22;33069;51.970;5.892;2023-10-19T15:56:37;17.00;86.10
47338;DHT22;33069;51.970;5.892;2023-10-19T15:59:23;17.00;85.80
47338;DHT22;33069;51.970;5.892;2023-10-19T16:02:10;17.00;85.60
47338;DHT22;33069;51.970;5.892;2023-10-19T16:04:56;17.10;85.50
47338;DHT22;33069;51.970;5.892;2023-10-19T16:07:42;17.00;85.40
47338;DHT22;33069;51.970;5.892;2023-10-19T16:10:29;17.00;85.40
47338;DHT22;33069;51.970;5.892;2023-10-19T16:13:15;16.80;85.30
47338;DHT22;33069;51.970;5.892;2023-10-19T16:16:04;16.60;85.80
47338;DHT22;33069;51.970;5.892;2023-10-19T16:18:50;16.50;86.00
47338;DHT22;33069;51.970;5.892;2023-10-19T16:21:36;16.50;86.20
47338;DHT22;33069;51.970;5.892;2023-10-19T16:24:22;16.50;86.20
47338;DHT22;33069;51.970;5.892;2023-10-19T16:27:09;16.30;86.30
47338;DHT22;33069;51.970;5.892;2023-10-19T16:29:56;16.30;86.70
47338;DHT22;33069;51.970;5.892;2023-10-19T16:32:42;16.30;86.60
47338;DHT22;33069;51.970;5.892;2023-10-19T16:35:30;16.30;86.70
47338;DHT22;33069;51.970;5.892;2023-10-19T16:38:16;16.20;86.60
47338;DHT22;33069;51.970;5.892;2023-10-19T16:41:02;16.20;86.80
47338;DHT22;33069;51.970;5.892;2023-10-19T16:43:48;16.20;86.70
47338;DHT22;33069;51.970;5.892;2023-10-19T16:46:35;16.20;86.80
47338;DHT22;33069;51.970;5.892;2023-10-19T16:49:24;16.10;86.70
47338;DHT22;33069;51.970;5.892;2023-10-19T16:52:10;16.00;86.70
47338;DHT22;33069;51.970;5.892;2023-10-19T16:54:56;16.00;86.80
47338;DHT22;33069;51.970;5.892;2023-10-19T16:57:42;16.00;86.90
47338;DHT22;33069;51.970;5.892;2023-10-19T17:00:28;16.00;86.90
47338;DHT22;33069;51.970;5.892;2023-10-19T17:03:16;15.90;86.90
47338;DHT22;33069;51.970;5.892;2023-10-19T17:06:02;15.80;87.10
47338;DHT22;33069;51.970;5.892;2023-10-19T17:08:48;15.80;87.30
47338;DHT22;33069;51.970;5.892;2023-10-19T17:11:34;15.80;87.40
47338;DHT22;33069;51.970;5.892;2023-10-19T17:14:20;15.80;87.50
47338;DHT22;33069;51.970;5.892;2023-10-19T17:17:09;15.70;87.60
47338;DHT22;33069;51.970;5.892;2023-10-19T17:19:55;15.80;87.80
47338;DHT22;33069;51.970;5.892;2023-10-19T17:22:41;15.70;87.90
47338;DHT22;33069;51.970;5.892;2023-10-19T17:25:30;15.80;88.00
47338;DHT22;33069;51.970;5.892;2023-10-19T17:28:16;15.80;88.00
47338;DHT22;33069;51.970;5.892;2023-10-19T17:31:03;15.70;88.00
47338;DHT22;33069;51.970;5.892;2023-10-19T17:33:52;15.70;88.00
47338;DHT22;33069;51.970;5.892;2023-10-19T17:36:38;15.70;88.10
47338;DHT22;33069;51.970;5.892;2023-10-19T17:39:26;15.70;88.10
47338;DHT22;33069;51.970;5.892;2023-10-19T17:42:14;15.70;88.10
47338;DHT22;33069;51.970;5.892;2023-10-19T17:45:00;15.70;88.10
47338;DHT22;33069;51.970;5.892;2023-10-19T17:47:46;15.60;88.20
47338;DHT22;33069;51.970;5.892;2023-10-19T17:50:32;15.60;88.30